createdAt,value
2022-11-13T00:01:48.675Z,5.67
2022-11-13T00:04:16.429Z,5.93
2022-11-13T00:06:44.073Z,6.20
2022-11-13T00:09:13.027Z,6.70
2022-11-13T00:11:40.719Z,5.60
2022-11-13T00:14:08.401Z,5.47
2022-11-13T00:16:37.657Z,4.83
2022-11-13T00:19:05.278Z,5.40
2022-11-13T00:21:33.181Z,5.30
2022-11-13T00:24:03.427Z,4.70
2022-11-13T00:26:32.222Z,4.90
2022-11-13T00:29:01.639Z,5.40
2022-11-13T00:31:30.107Z,4.97
2022-11-13T00:36:48.349Z,5.20
2022-11-13T00:39:16.357Z,4.70
2022-11-13T00:41:44.308Z,4.13
2022-11-13T00:44:11.842Z,5.03
2022-11-13T00:46:40.424Z,5.63
2022-11-13T00:49:11.798Z,4.70
2022-11-13T00:51:39.598Z,5.67
2022-11-13T00:54:07.225Z,5.60
2022-11-13T00:56:34.894Z,5.50
2022-11-13T00:59:07.145Z,4.63
2022-11-13T01:01:35.055Z,4.53
2022-11-13T01:04:03.654Z,4.53
2022-11-13T01:06:35.556Z,4.20
2022-11-13T01:09:05.342Z,4.47
2022-11-13T01:11:35.529Z,4.03
2022-11-13T01:14:03.069Z,4.00
2022-11-13T01:16:35.017Z,3.73
2022-11-13T01:19:02.875Z,4.50
2022-11-13T01:21:33.000Z,3.80
2022-11-13T01:24:02.733Z,4.20
2022-11-13T01:26:32.015Z,4.13
2022-11-13T01:29:00.779Z,3.87
2022-11-13T01:31:31.044Z,5.00
2022-11-13T01:33:59.032Z,4.17
2022-11-13T01:36:28.850Z,3.33
2022-11-13T01:38:59.456Z,4.57
2022-11-13T01:41:29.492Z,4.00
2022-11-13T01:44:00.503Z,3.80
2022-11-13T01:46:30.575Z,4.80
2022-11-13T01:49:04.320Z,4.07
2022-11-13T01:51:34.405Z,4.93
2022-11-13T01:54:08.353Z,6.20
2022-11-13T01:56:36.088Z,4.40
2022-11-13T01:59:07.950Z,5.37
2022-11-13T02:01:36.626Z,4.77
2022-11-13T02:04:04.357Z,5.07
2022-11-13T02:06:37.749Z,4.60
2022-11-13T02:09:10.291Z,4.43
2022-11-13T02:11:39.684Z,6.57
2022-11-13T02:14:09.106Z,6.33
2022-11-13T02:16:39.592Z,5.67
2022-11-13T02:19:20.531Z,5.33
2022-11-13T02:21:54.579Z,6.10
2022-11-13T02:24:28.751Z,6.43
2022-11-13T02:27:01.668Z,5.50
2022-11-13T02:29:29.530Z,5.77
2022-11-13T02:31:58.148Z,5.40
2022-11-13T02:34:25.888Z,5.53
2022-11-13T02:36:54.603Z,5.60
2022-11-13T02:39:29.289Z,5.43
2022-11-13T02:41:57.149Z,4.67
2022-11-13T02:44:24.706Z,4.50
2022-11-13T02:46:52.336Z,4.57
2022-11-13T02:49:20.118Z,3.67
2022-11-13T02:51:47.745Z,4.47
2022-11-13T02:54:17.145Z,3.47
2022-11-13T02:56:48.084Z,4.00
2022-11-13T02:59:15.903Z,3.83
2022-11-13T03:01:43.795Z,3.97
2022-11-13T03:04:11.490Z,3.93
2022-11-13T03:06:39.115Z,3.70
2022-11-13T03:09:07.389Z,3.40
2022-11-13T03:11:35.969Z,4.30
2022-11-13T03:14:05.248Z,4.83
2022-11-13T03:16:33.146Z,5.40
2022-11-13T03:19:02.386Z,4.93
2022-11-13T03:21:31.466Z,4.40
2022-11-13T03:23:59.150Z,4.30
2022-11-13T03:26:28.455Z,4.60
2022-11-13T03:28:56.544Z,4.60
2022-11-13T03:31:26.608Z,4.47
2022-11-13T03:33:55.266Z,4.87
2022-11-13T03:36:23.268Z,5.60
2022-11-13T03:38:50.971Z,4.50
2022-11-13T03:41:18.631Z,4.80
2022-11-13T03:43:53.896Z,3.47
2022-11-13T03:46:21.575Z,4.30
2022-11-13T03:48:50.566Z,4.73
2022-11-13T03:51:18.314Z,4.27
2022-11-13T03:53:46.306Z,5.03
2022-11-13T03:56:17.749Z,4.87
2022-11-13T03:58:49.825Z,4.67
2022-11-13T04:01:17.917Z,4.20
2022-11-13T04:03:46.680Z,4.10
2022-11-13T04:06:15.757Z,3.60
2022-11-13T04:08:46.335Z,4.23
2022-11-13T04:11:14.764Z,3.67
2022-11-13T04:13:42.391Z,3.83
2022-11-13T04:16:10.013Z,4.27
2022-11-13T04:18:37.968Z,3.93
2022-11-13T04:21:06.401Z,3.70
2022-11-13T04:23:35.366Z,3.83
2022-11-13T04:26:04.217Z,4.20
2022-11-13T04:28:32.190Z,3.67
2022-11-13T04:31:00.053Z,3.40
2022-11-13T04:33:27.658Z,3.27
2022-11-13T04:35:55.239Z,3.77
2022-11-13T04:38:24.502Z,3.60
2022-11-13T04:41:14.304Z,3.57
2022-11-13T04:43:41.353Z,3.70
2022-11-13T04:46:09.286Z,3.10
2022-11-13T04:48:36.974Z,3.73
2022-11-13T04:51:04.859Z,3.50
2022-11-13T04:53:32.605Z,3.40
2022-11-13T04:56:01.582Z,4.17
2022-11-13T04:58:29.532Z,3.00
2022-11-13T05:00:59.832Z,3.70
2022-11-13T05:03:27.434Z,3.40
2022-11-13T05:05:55.074Z,3.57
2022-11-13T05:08:23.740Z,4.00
2022-11-13T05:10:51.592Z,4.60
2022-11-13T05:13:20.785Z,4.10
2022-11-13T05:15:48.960Z,4.27
2022-11-13T05:18:19.256Z,4.57
2022-11-13T05:20:47.545Z,4.90
2022-11-13T05:23:19.018Z,4.30
2022-11-13T05:25:46.734Z,4.20
2022-11-13T05:28:16.076Z,4.33
2022-11-13T05:30:45.010Z,3.50
2022-11-13T05:33:13.122Z,3.90
2022-11-13T05:35:40.766Z,4.10
2022-11-13T05:38:08.528Z,3.30
2022-11-13T05:40:36.127Z,3.50
2022-11-13T05:43:04.113Z,3.40
2022-11-13T05:45:31.914Z,3.20
2022-11-13T05:48:00.799Z,3.40
2022-11-13T05:50:29.140Z,3.33
2022-11-13T05:52:58.995Z,3.80
2022-11-13T05:55:28.630Z,3.30
2022-11-13T05:57:56.262Z,3.03
2022-11-13T06:00:24.478Z,3.30
2022-11-13T06:02:52.154Z,3.00
2022-11-13T06:05:21.195Z,4.00
2022-11-13T06:07:50.392Z,3.30
2022-11-13T06:10:18.244Z,3.27
2022-11-13T06:12:45.936Z,3.20
2022-11-13T06:15:13.623Z,3.27
2022-11-13T06:17:41.530Z,3.60
2022-11-13T06:20:10.202Z,3.47
2022-11-13T06:22:39.324Z,3.10
2022-11-13T06:25:08.268Z,2.83
2022-11-13T06:27:35.876Z,3.77
2022-11-13T06:30:03.928Z,3.33
2022-11-13T06:32:31.543Z,2.80
2022-11-13T06:34:59.304Z,3.20
2022-11-13T06:37:29.569Z,3.20
2022-11-13T06:40:00.479Z,3.93
2022-11-13T06:42:28.218Z,3.40
2022-11-13T06:44:56.156Z,3.40
2022-11-13T06:47:28.073Z,3.73
2022-11-13T06:49:58.153Z,3.20
2022-11-13T06:52:26.816Z,3.43
2022-11-13T06:54:54.600Z,3.00
2022-11-13T06:57:23.575Z,3.67
2022-11-13T06:59:51.214Z,3.50
2022-11-13T07:02:18.910Z,3.40
2022-11-13T07:04:46.663Z,2.60
2022-11-13T07:07:14.325Z,2.57
2022-11-13T07:09:42.057Z,2.83
2022-11-13T07:12:09.750Z,2.63
2022-11-13T07:14:38.761Z,2.87
2022-11-13T07:17:09.633Z,2.60
2022-11-13T07:19:37.873Z,2.77
2022-11-13T07:22:05.937Z,2.63
2022-11-13T07:24:33.526Z,2.63
2022-11-13T07:27:01.102Z,3.03
2022-11-13T07:29:28.686Z,3.00
2022-11-13T07:31:57.681Z,2.80
2022-11-13T07:34:25.269Z,2.70
2022-11-13T07:36:52.887Z,3.10
2022-11-13T07:39:20.870Z,2.83
2022-11-13T07:41:48.619Z,3.37
2022-11-13T07:44:40.081Z,3.30
2022-11-13T07:47:05.657Z,3.50
2022-11-13T07:49:33.359Z,3.33
2022-11-13T07:52:01.068Z,3.50
2022-11-13T07:54:28.901Z,3.47
2022-11-13T07:56:57.003Z,3.80
2022-11-13T07:59:24.599Z,2.83
2022-11-13T08:01:52.329Z,3.30
2022-11-13T08:04:21.272Z,3.53
2022-11-13T08:06:49.000Z,3.77
2022-11-13T08:09:16.759Z,3.37
2022-11-13T08:11:44.381Z,3.60
2022-11-13T08:14:12.094Z,3.43
2022-11-13T08:16:39.770Z,3.60
2022-11-13T08:19:07.362Z,3.90
2022-11-13T08:21:37.449Z,3.60
2022-11-13T08:24:06.616Z,3.27
2022-11-13T08:26:34.242Z,3.20
2022-11-13T08:29:01.876Z,3.73
2022-11-13T08:31:29.603Z,3.70
2022-11-13T08:33:57.334Z,3.80
2022-11-13T08:36:24.878Z,3.57
2022-11-13T08:38:53.911Z,4.00
2022-11-13T08:41:21.551Z,4.00
2022-11-13T08:43:49.134Z,3.40
2022-11-13T08:46:16.845Z,3.97
2022-11-13T08:48:44.737Z,3.93
2022-11-13T08:51:12.963Z,3.80
2022-11-13T08:53:40.563Z,3.87
2022-11-13T08:56:09.803Z,3.93
2022-11-13T08:58:37.437Z,4.13
2022-11-13T09:01:07.683Z,3.90
2022-11-13T09:03:36.953Z,3.20
2022-11-13T09:06:07.147Z,3.70
2022-11-13T09:08:36.469Z,3.43
2022-11-13T09:11:05.237Z,3.80
2022-11-13T09:13:38.575Z,4.77
2022-11-13T09:16:08.869Z,3.90
2022-11-13T09:18:36.482Z,4.10
2022-11-13T09:21:04.710Z,3.77
2022-11-13T09:23:32.885Z,3.83
2022-11-13T09:26:03.147Z,4.47
2022-11-13T09:28:31.142Z,4.37
2022-11-13T09:31:00.401Z,4.70
2022-11-13T09:33:27.935Z,3.80
2022-11-13T09:35:55.534Z,4.50
2022-11-13T09:38:24.473Z,4.60
2022-11-13T09:40:56.917Z,4.90
2022-11-13T09:43:32.279Z,4.60
2022-11-13T09:46:06.670Z,4.77
2022-11-13T09:48:38.025Z,4.80
2022-11-13T09:51:11.754Z,4.63
2022-11-13T09:53:40.652Z,5.30
2022-11-13T09:56:26.481Z,5.10
2022-11-13T09:59:02.724Z,5.20
2022-11-13T10:01:41.445Z,5.30
2022-11-13T10:04:15.134Z,5.07
2022-11-13T10:07:01.001Z,4.70
2022-11-13T10:09:38.084Z,5.20
2022-11-13T10:12:08.407Z,4.63
2022-11-13T10:14:39.320Z,4.57
2022-11-13T10:17:17.155Z,4.10
2022-11-13T10:19:54.172Z,4.67
2022-11-13T10:22:33.862Z,5.57
2022-11-13T10:25:10.500Z,4.77
2022-11-13T10:27:38.576Z,4.87
2022-11-13T10:30:13.855Z,4.47
2022-11-13T10:32:43.232Z,4.97
2022-11-13T10:35:23.143Z,4.90
2022-11-13T10:38:04.865Z,4.70
2022-11-13T10:40:38.117Z,4.20
2022-11-13T10:43:07.343Z,4.50
2022-11-13T10:45:35.019Z,4.70
2022-11-13T10:48:05.442Z,4.87
2022-11-13T10:50:35.979Z,4.90
2022-11-13T10:53:03.768Z,4.40
2022-11-13T10:55:41.003Z,5.30
2022-11-13T10:58:14.697Z,5.00
2022-11-13T11:00:45.064Z,5.30
2022-11-13T11:03:19.143Z,4.87
2022-11-13T11:05:55.518Z,4.93
2022-11-13T11:08:29.532Z,4.97
2022-11-13T11:11:18.636Z,4.80
2022-11-13T11:13:46.776Z,4.73
2022-11-13T11:16:20.652Z,4.60
2022-11-13T11:18:57.461Z,5.10
2022-11-13T11:21:30.179Z,4.97
2022-11-13T11:24:02.154Z,5.37
2022-11-13T11:26:34.925Z,4.60
2022-11-13T11:29:12.135Z,5.00
2022-11-13T11:31:48.354Z,5.67
2022-11-13T11:34:25.761Z,4.77
2022-11-13T11:37:01.596Z,4.73
2022-11-13T11:39:34.812Z,4.03
2022-11-13T11:42:13.757Z,3.73
2022-11-13T11:44:51.933Z,3.83
2022-11-13T11:47:19.601Z,3.50
2022-11-13T11:49:48.869Z,3.37
2022-11-13T11:52:31.081Z,3.50
2022-11-13T11:55:11.084Z,3.50
2022-11-13T11:57:50.766Z,3.80
2022-11-13T12:00:20.555Z,4.37
2022-11-13T12:03:14.723Z,3.70
2022-11-13T12:05:54.470Z,3.13
2022-11-13T12:08:32.298Z,3.00
2022-11-13T12:11:06.948Z,3.30
2022-11-13T12:13:42.988Z,2.80
2022-11-13T12:16:22.308Z,2.73
2022-11-13T12:19:00.998Z,3.43
2022-11-13T12:21:42.758Z,3.37
2022-11-13T12:24:40.478Z,3.43
2022-11-13T12:27:20.061Z,3.50
2022-11-13T12:29:59.398Z,3.80
2022-11-13T12:32:40.694Z,3.37
2022-11-13T12:35:13.496Z,3.20
2022-11-13T12:37:50.953Z,3.50
2022-11-13T12:40:28.481Z,3.70
2022-11-13T12:43:07.670Z,3.80
2022-11-13T12:45:52.633Z,4.30
2022-11-13T12:48:29.183Z,4.10
2022-11-13T12:51:01.825Z,4.10
2022-11-13T12:53:32.817Z,4.10
2022-11-13T12:56:02.719Z,3.40
2022-11-13T12:58:32.770Z,4.10
2022-11-13T13:01:06.724Z,3.80
2022-11-13T13:04:14.641Z,3.77
2022-11-13T13:06:55.927Z,3.07
2022-11-13T13:09:41.329Z,3.57
2022-11-13T13:12:18.600Z,3.90
2022-11-13T13:15:08.637Z,3.73
2022-11-13T13:17:37.129Z,3.77
2022-11-13T13:20:08.041Z,4.00
2022-11-13T13:22:39.400Z,3.63
2022-11-13T13:25:26.525Z,3.90
2022-11-13T13:27:58.507Z,3.40
2022-11-13T13:30:27.279Z,4.30
2022-11-13T13:33:06.522Z,3.33
2022-11-13T13:35:43.294Z,3.87
2022-11-13T13:38:19.587Z,4.23
2022-11-13T13:41:04.341Z,3.80
2022-11-13T13:43:47.448Z,4.10
2022-11-13T13:46:18.773Z,3.90
2022-11-13T13:48:48.867Z,3.83
2022-11-13T13:51:24.280Z,4.13
2022-11-13T13:53:52.006Z,4.70
2022-11-13T13:56:23.386Z,6.70
2022-11-13T13:58:52.025Z,5.00
2022-11-13T14:01:28.603Z,5.33
2022-11-13T14:04:07.338Z,6.60
2022-11-13T14:06:34.993Z,5.77
2022-11-13T14:09:10.396Z,4.70
2022-11-13T14:11:39.554Z,4.80
2022-11-13T14:14:11.846Z,3.67
2022-11-13T14:16:51.228Z,3.70
2022-11-13T14:19:19.245Z,3.40
2022-11-13T14:21:49.819Z,3.27
2022-11-13T14:24:26.498Z,3.20
2022-11-13T14:26:58.312Z,3.00
2022-11-13T14:29:35.498Z,2.63
2022-11-13T14:32:13.467Z,2.93
2022-11-13T14:34:45.136Z,3.13
2022-11-13T14:37:24.187Z,3.47
2022-11-13T14:39:52.871Z,4.37
2022-11-13T14:42:27.161Z,3.37
2022-11-13T14:44:54.845Z,3.30
2022-11-13T14:47:28.796Z,3.40
2022-11-13T14:49:56.575Z,2.80
2022-11-13T14:52:26.898Z,3.40
2022-11-13T14:55:20.588Z,3.37
2022-11-13T14:57:50.538Z,3.50
2022-11-13T15:00:19.177Z,3.63
2022-11-13T15:02:46.934Z,3.37
2022-11-13T15:05:23.532Z,3.93
2022-11-13T15:07:55.067Z,4.20
2022-11-13T15:10:24.579Z,3.97
2022-11-13T15:12:53.949Z,3.67
2022-11-13T15:15:27.017Z,3.73
2022-11-13T15:17:55.690Z,3.60
2022-11-13T15:20:26.261Z,3.63
2022-11-13T15:22:55.601Z,3.00
2022-11-13T15:25:26.433Z,3.27
2022-11-13T15:27:55.469Z,3.20
2022-11-13T15:30:23.097Z,3.37
2022-11-13T15:32:53.992Z,3.50
2022-11-13T15:35:24.358Z,3.60
2022-11-13T15:37:52.117Z,3.10
2022-11-13T15:40:20.071Z,3.20
2022-11-13T15:42:48.218Z,3.80
2022-11-13T15:45:18.075Z,3.27
2022-11-13T15:47:45.701Z,3.30
2022-11-13T15:50:15.638Z,3.87
2022-11-13T15:52:49.133Z,3.57
2022-11-13T15:55:26.315Z,3.80
2022-11-13T15:57:55.017Z,3.70
2022-11-13T16:00:27.796Z,4.37
2022-11-13T16:02:59.369Z,4.60
2022-11-13T16:05:31.087Z,3.83
2022-11-13T16:08:20.061Z,4.00
2022-11-13T16:10:47.844Z,4.40
2022-11-13T16:13:16.033Z,4.27
2022-11-13T16:15:49.522Z,5.40
2022-11-13T16:18:24.255Z,4.50
2022-11-13T16:20:57.516Z,5.70
2022-11-13T16:23:25.486Z,4.83
2022-11-13T16:25:59.630Z,4.40
2022-11-13T16:28:31.481Z,5.00
2022-11-13T16:31:03.316Z,4.60
2022-11-13T16:33:32.365Z,5.30
2022-11-13T16:36:00.874Z,4.90
2022-11-13T16:38:28.607Z,4.53
2022-11-13T16:40:56.435Z,5.40
2022-11-13T16:43:26.592Z,4.83
2022-11-13T16:45:55.019Z,5.20
2022-11-13T16:48:24.205Z,5.40
2022-11-13T16:50:52.551Z,5.73
2022-11-13T16:53:22.554Z,4.90
2022-11-13T16:55:52.772Z,5.33
2022-11-13T16:58:21.018Z,7.87
2022-11-13T17:00:49.175Z,5.30
2022-11-13T17:03:17.233Z,5.27
2022-11-13T17:05:47.184Z,5.17
2022-11-13T17:08:14.902Z,5.37
2022-11-13T17:10:43.373Z,5.60
2022-11-13T17:13:11.008Z,4.73
2022-11-13T17:15:41.113Z,5.20
2022-11-13T17:18:12.751Z,5.00
2022-11-13T17:20:40.853Z,6.27
2022-11-13T17:23:15.275Z,5.60
2022-11-13T17:25:43.249Z,5.97
2022-11-13T17:28:10.955Z,5.40
2022-11-13T17:30:39.105Z,6.10
2022-11-13T17:33:08.137Z,5.10
2022-11-13T17:35:36.203Z,4.73
2022-11-13T17:38:03.874Z,5.97
2022-11-13T17:40:33.440Z,5.63
2022-11-13T17:43:02.264Z,5.40
2022-11-13T17:45:30.226Z,5.40
2022-11-13T17:47:58.111Z,5.70
2022-11-13T17:50:28.627Z,4.93
2022-11-13T17:52:57.642Z,5.10
2022-11-13T17:55:28.169Z,5.43
2022-11-13T17:58:01.629Z,4.90
2022-11-13T18:00:30.412Z,6.00
2022-11-13T18:02:58.305Z,7.33
2022-11-13T18:05:25.870Z,6.97
2022-11-13T18:07:53.632Z,7.17
2022-11-13T18:10:24.576Z,8.27
2022-11-13T18:12:54.731Z,6.40
2022-11-13T18:15:23.985Z,6.77
2022-11-13T18:17:52.308Z,7.00
2022-11-13T18:20:22.833Z,8.37
2022-11-13T18:22:50.750Z,7.73
2022-11-13T18:25:18.634Z,8.00
2022-11-13T18:27:47.779Z,8.43
2022-11-13T18:30:17.095Z,8.30
2022-11-13T18:32:48.670Z,8.37
2022-11-13T18:35:16.652Z,10.50
2022-11-13T18:37:46.858Z,8.90
2022-11-13T18:40:14.780Z,8.17
2022-11-13T18:42:42.983Z,8.70
2022-11-13T18:45:11.833Z,8.03
2022-11-13T18:47:40.028Z,8.83
2022-11-13T18:50:11.697Z,8.80
2022-11-13T18:52:44.728Z,7.57
2022-11-13T18:55:14.051Z,8.80
2022-11-13T18:57:41.899Z,8.07
2022-11-13T19:00:12.013Z,8.40
2022-11-13T19:02:40.472Z,8.37
2022-11-13T19:05:09.999Z,7.63
2022-11-13T19:07:43.865Z,7.77
2022-11-13T19:10:13.864Z,8.20
2022-11-13T19:12:41.691Z,8.10
2022-11-13T19:15:11.310Z,8.27
2022-11-13T19:17:38.894Z,7.50
2022-11-13T19:20:11.088Z,7.47
2022-11-13T19:22:39.349Z,7.50
2022-11-13T19:25:08.281Z,8.17
2022-11-13T19:27:36.020Z,7.20
2022-11-13T19:30:07.778Z,7.80
2022-11-13T19:35:33.374Z,8.33
2022-11-13T19:38:02.327Z,8.73
2022-11-13T19:40:29.942Z,7.97
2022-11-13T19:42:57.519Z,8.17
2022-11-13T19:45:26.502Z,7.80
2022-11-13T19:47:54.423Z,8.07
2022-11-13T19:50:22.435Z,8.23
2022-11-13T19:52:51.893Z,8.60
2022-11-13T19:55:19.574Z,9.10
2022-11-13T19:57:47.492Z,7.90
2022-11-13T20:00:15.576Z,8.10
2022-11-13T20:02:43.218Z,7.70
2022-11-13T20:05:11.084Z,7.67
2022-11-13T20:07:41.135Z,8.50
2022-11-13T20:10:10.687Z,9.17
2022-11-13T20:12:38.587Z,7.90
2022-11-13T20:15:07.137Z,9.03
2022-11-13T20:17:36.003Z,8.30
2022-11-13T20:20:10.398Z,7.63
2022-11-13T20:22:39.832Z,7.60
2022-11-13T20:25:07.942Z,7.50
2022-11-13T20:27:37.769Z,7.30
2022-11-13T20:30:09.147Z,9.13
2022-11-13T20:32:38.881Z,8.67
2022-11-13T20:35:08.609Z,7.83
2022-11-13T20:37:36.739Z,7.97
2022-11-13T20:40:04.706Z,7.90
2022-11-13T20:42:32.599Z,8.50
2022-11-13T20:45:01.810Z,7.80
2022-11-13T20:47:29.542Z,8.60
2022-11-13T20:49:57.507Z,8.50
2022-11-13T20:52:25.475Z,8.83
2022-11-13T20:54:53.311Z,7.57
2022-11-13T20:57:21.279Z,7.93
2022-11-13T20:59:48.851Z,7.53
2022-11-13T21:02:17.938Z,8.73
2022-11-13T21:04:45.719Z,9.03
2022-11-13T21:07:13.448Z,9.90
2022-11-13T21:09:43.195Z,8.77
2022-11-13T21:12:14.066Z,8.00
2022-11-13T21:14:42.137Z,7.63
2022-11-13T21:17:11.064Z,7.33
2022-11-13T21:19:42.488Z,7.23
2022-11-13T21:22:10.570Z,7.60
2022-11-13T21:24:38.456Z,7.60
2022-11-13T21:27:06.141Z,7.33
2022-11-13T21:29:34.037Z,6.90
2022-11-13T21:32:01.772Z,8.47
2022-11-13T21:34:29.435Z,8.10
2022-11-13T21:36:58.479Z,8.37
2022-11-13T21:39:26.366Z,8.40
2022-11-13T21:41:54.377Z,8.97
2022-11-13T21:44:22.062Z,9.40
2022-11-13T21:46:49.997Z,8.30
2022-11-13T21:49:17.891Z,7.77
2022-11-13T21:51:45.721Z,7.53
2022-11-13T21:54:15.340Z,7.80
2022-11-13T21:56:43.085Z,7.47
2022-11-13T21:59:10.960Z,7.63
2022-11-13T22:01:39.090Z,7.90
2022-11-13T22:04:06.969Z,6.60
2022-11-13T22:06:36.950Z,8.80
2022-11-13T22:09:07.862Z,7.40
2022-11-13T22:11:37.904Z,7.97
2022-11-13T22:14:06.547Z,7.70
2022-11-13T22:16:35.903Z,7.03
2022-11-13T22:19:07.386Z,7.03
2022-11-13T22:21:36.581Z,8.13
2022-11-13T22:24:04.664Z,7.93
2022-11-13T22:26:32.583Z,7.47
2022-11-13T22:29:01.781Z,7.17
2022-11-13T22:31:31.388Z,7.90
2022-11-13T22:34:00.171Z,8.60
2022-11-13T22:36:31.420Z,7.20
2022-11-13T22:39:00.823Z,8.30
2022-11-13T22:41:31.032Z,7.30
2022-11-13T22:44:02.177Z,8.47
2022-11-13T22:46:31.182Z,8.47
2022-11-13T22:49:01.570Z,7.33
2022-11-13T22:51:30.989Z,7.07
2022-11-13T22:54:00.176Z,8.17
2022-11-13T22:56:29.703Z,6.77
2022-11-13T22:58:58.583Z,6.53
2022-11-13T23:01:31.674Z,6.90
2022-11-13T23:04:02.697Z,7.60
2022-11-13T23:06:33.032Z,7.50
2022-11-13T23:09:01.181Z,7.03
2022-11-13T23:11:30.438Z,7.60
2022-11-13T23:14:00.483Z,7.77
2022-11-13T23:16:30.527Z,7.47
2022-11-13T23:18:59.900Z,6.90
2022-11-13T23:21:28.432Z,8.90
2022-11-13T23:23:56.443Z,7.10
2022-11-13T23:26:25.391Z,7.70
2022-11-13T23:28:54.598Z,7.80
2022-11-13T23:31:22.559Z,8.10
2022-11-13T23:33:51.760Z,7.57
2022-11-13T23:36:19.560Z,7.80
2022-11-13T23:38:47.151Z,7.13
2022-11-13T23:41:15.166Z,6.57
2022-11-13T23:46:30.347Z,6.77
2022-11-13T23:48:59.430Z,7.43
2022-11-13T23:51:27.083Z,6.93
2022-11-13T23:53:54.738Z,7.50
2022-11-13T23:56:22.712Z,6.77
2022-11-13T23:58:52.869Z,6.07
